Terminal Aerodrome Forecast
Issued by NWS

Home | Current Version | Previous Version | Text Only | Print | Product List | Glossary On
Versions: 1 2 3 4 5 6 7 8 9 10 11 12 13 14 15 16
000
FTUS43 KDTX 272016 AAA
TAFDET
TAF AMD
KDET 272016Z 2720/2818 31011KT P6SM SCT028 BKN035
      TEMPO 2720/2722 6SM -SHSN BKN030
     FM272200 32012G19KT P6SM BKN035 OVC050
     FM280300 29008KT P6SM SCT050
     FM281400 24006KT P6SM OVC150=

USA.gov is the U.S. government's official web portal to all federal, state and local government web resources and services.